Time;durP1;ratioP1;P1;durP2;ratioP2;P2;SDS_P1;SDS_P2;PMS_P1;PMS_P2;Temp;Humidity;BMP_temperature;BMP_pressure;BME280_temperature;BME280_humidity;BME280_pressure;Samples;Min_cycle;Max_cycle;Signal;HPM_P1;HPM_P2
2022/03/24 00:02:06;;;;;;;10.55;8.30;;;6.80;99.90;;;;;;4995863;28;20045;-67
2022/03/24 00:04:32;;;;;;;17.75;11.80;;;6.70;99.90;;;;;;4994422;28;20041;-67
2022/03/24 00:06:58;;;;;;;114.40;55.28;;;6.50;99.90;;;;;;4995560;28;20038;-68
2022/03/24 00:09:24;;;;;;;32.88;19.55;;;6.60;99.90;;;;;;4992093;28;20565;-67
2022/03/24 00:11:49;;;;;;;50.05;28.08;;;7.00;99.90;;;;;;4997397;28;20034;-67
2022/03/24 00:14:18;;;;;;;45.80;24.75;;;7.10;99.90;;;;;;4994293;28;20065;-67
2022/03/24 00:16:44;;;;;;;52.03;28.67;;;6.90;99.90;;;;;;4995409;28;20061;-67
2022/03/24 00:19:10;;;;;;;21.98;13.82;;;6.70;99.90;;;;;;4995413;28;20030;-67
2022/03/24 00:21:36;;;;;;;20.50;13.52;;;6.90;99.90;;;;;;4992663;28;20030;-67
2022/03/24 00:24:02;;;;;;;24.30;16.20;;;7.10;99.90;;;;;;4995941;28;20026;-67
2022/03/24 00:26:28;;;;;;;31.98;19.67;;;7.40;99.90;;;;;;4995885;28;20041;-67
2022/03/24 00:28:53;;;;;;;23.30;14.75;;;7.20;99.90;;;;;;4995056;28;20038;-67
2022/03/24 00:31:19;;;;;;;23.52;16.38;;;7.20;99.90;;;;;;4993891;28;20065;-67
2022/03/24 00:33:45;;;;;;;33.97;21.58;;;7.10;99.90;;;;;;4993325;28;20352;-67
2022/03/24 00:36:11;;;;;;;15.02;11.00;;;6.80;99.90;;;;;;4993961;28;20030;-67
2022/03/24 00:38:40;;;;;;;19.45;14.02;;;6.60;99.90;;;;;;4996811;28;20495;-67
2022/03/24 00:41:06;;;;;;;30.33;20.00;;;6.60;99.90;;;;;;4994583;28;20507;-67
2022/03/24 00:43:33;;;;;;;15.23;10.70;;;6.50;99.90;;;;;;4994230;28;20089;-67
2022/03/24 00:45:59;;;;;;;32.83;20.65;;;6.40;99.90;;;;;;4994726;28;20490;-67
2022/03/24 00:48:25;;;;;;;20.38;15.13;;;6.40;99.90;;;;;;4991334;28;20019;-67
2022/03/24 00:50:53;;;;;;;17.67;12.55;;;6.50;99.90;;;;;;4996866;28;20088;-67
2022/03/24 00:53:19;;;;;;;21.63;14.13;;;6.30;99.90;;;;;;4994015;28;20062;-67
2022/03/24 00:55:45;;;;;;;17.52;12.82;;;6.60;99.90;;;;;;4994598;28;20093;-67
2022/03/24 00:58:13;;;;;;;13.40;9.02;;;6.70;99.90;;;;;;4994972;28;20049;-67
2022/03/24 01:00:40;;;;;;;12.55;8.40;;;6.90;99.90;;;;;;4991855;28;20037;-67
2022/03/24 01:03:07;;;;;;;12.43;8.52;;;7.20;99.90;;;;;;4994580;28;20050;-67
2022/03/24 01:05:37;;;;;;;9.65;7.10;;;7.20;99.90;;;;;;4996096;28;20034;-67
2022/03/24 01:08:05;;;;;;;9.60;6.90;;;7.30;99.90;;;;;;4994856;28;20030;-67
2022/03/24 01:10:31;;;;;;;8.95;6.72;;;7.40;99.90;;;;;;4992711;28;20038;-67
2022/03/24 01:12:59;;;;;;;9.25;6.57;;;7.30;99.90;;;;;;4993280;28;20026;-67
2022/03/24 01:15:26;;;;;;;7.13;6.40;;;7.30;99.90;;;;;;4990930;28;20034;-67
2022/03/24 01:17:53;;;;;;;7.35;6.40;;;7.40;99.90;;;;;;4996692;28;20023;-66
2022/03/24 01:20:19;;;;;;;8.65;6.45;;;7.40;99.90;;;;;;4994583;28;20454;-67
2022/03/24 01:22:45;;;;;;;9.10;6.75;;;7.50;99.90;;;;;;4992977;28;20014;-67
2022/03/24 01:25:11;;;;;;;8.98;6.75;;;7.40;99.90;;;;;;4994555;28;20052;-67
2022/03/24 01:27:40;;;;;;;8.73;6.65;;;7.40;99.90;;;;;;4991758;28;20031;-67
2022/03/24 01:30:10;;;;;;;9.23;6.10;;;7.40;99.90;;;;;;4993879;28;20395;-67
2022/03/24 01:32:37;;;;;;;8.88;6.40;;;7.40;99.90;;;;;;4994445;28;20079;-67
2022/03/24 01:35:07;;;;;;;14.43;8.45;;;7.30;99.90;;;;;;4994511;28;20037;-67
2022/03/24 01:37:34;;;;;;;14.25;8.85;;;7.20;99.90;;;;;;4994565;28;20026;-67
2022/03/24 01:39:59;;;;;;;16.33;10.52;;;7.20;99.90;;;;;;4994092;28;20070;-66
2022/03/24 01:42:26;;;;;;;20.08;13.75;;;7.20;99.90;;;;;;4990305;28;20066;-67
2022/03/24 01:44:55;;;;;;;13.18;9.80;;;7.10;99.90;;;;;;4996590;28;20480;-67
2022/03/24 01:47:22;;;;;;;12.23;9.77;;;7.00;99.90;;;;;;4994602;28;20137;-67
2022/03/24 01:49:48;;;;;;;13.40;10.73;;;6.90;99.90;;;;;;4993134;28;20157;-67
2022/03/24 01:52:16;;;;;;;10.35;9.07;;;6.80;99.90;;;;;;4994166;28;20030;-67
2022/03/24 01:54:51;;;;;;;10.18;7.45;;;6.80;99.90;;;;;;4991542;28;20473;-66
2022/03/24 01:57:19;;;;;;;10.82;7.78;;;6.80;99.90;;;;;;4991561;28;20033;-67
2022/03/24 01:59:45;;;;;;;9.65;8.25;;;6.80;99.90;;;;;;4996408;28;20435;-66
2022/03/24 02:02:11;;;;;;;9.02;8.07;;;6.60;99.90;;;;;;4992873;28;20034;-67
2022/03/24 02:04:38;;;;;;;10.65;7.38;;;6.40;99.90;;;;;;4994246;28;20030;-66
2022/03/24 02:07:06;;;;;;;8.30;7.35;;;6.40;99.90;;;;;;4992852;28;20026;-67
2022/03/24 02:09:33;;;;;;;9.85;7.18;;;6.30;99.90;;;;;;4988821;28;20096;-67
2022/03/24 02:12:00;;;;;;;9.05;7.68;;;6.30;99.90;;;;;;4995504;28;20550;-67
2022/03/24 02:14:29;;;;;;;8.50;7.13;;;6.50;99.90;;;;;;4994749;28;20030;-67
2022/03/24 02:16:55;;;;;;;10.05;7.80;;;6.30;99.90;;;;;;4994198;28;20495;-67
2022/03/24 02:19:23;;;;;;;10.60;7.63;;;6.30;99.90;;;;;;4993882;28;20486;-66
2022/03/24 02:21:51;;;;;;;9.88;7.30;;;6.20;99.90;;;;;;4992113;28;20025;-67
2022/03/24 02:24:19;;;;;;;9.70;7.30;;;6.40;99.90;;;;;;4994011;28;20026;-67
2022/03/24 02:26:46;;;;;;;8.93;7.07;;;6.40;99.90;;;;;;4999751;28;20033;-67
2022/03/24 02:29:14;;;;;;;11.48;7.60;;;6.30;99.90;;;;;;4995970;28;20069;-66
2022/03/24 02:31:43;;;;;;;10.18;7.70;;;6.30;99.90;;;;;;4997565;28;20105;-67
2022/03/24 02:36:57;;;;;;;10.45;7.40;;;5.80;99.90;;;;;;4997024;28;20391;-66
2022/03/24 02:39:23;;;;;;;8.45;7.43;;;5.40;99.90;;;;;;4993425;28;20033;-67
2022/03/24 02:41:54;;;;;;;11.55;8.00;;;5.20;99.90;;;;;;4998544;28;20056;-67
2022/03/24 02:44:25;;;;;;;8.55;7.40;;;5.20;99.90;;;;;;4997281;28;20054;-67
2022/03/24 02:46:53;;;;;;;10.00;7.75;;;5.30;99.90;;;;;;4997245;28;20486;-67
2022/03/24 02:49:24;;;;;;;9.52;7.55;;;5.60;99.90;;;;;;4995751;28;20057;-66
2022/03/24 02:51:51;;;;;;;14.30;9.32;;;5.70;99.90;;;;;;4995191;28;20022;-67
2022/03/24 02:54:19;;;;;;;9.88;8.32;;;5.70;99.90;;;;;;4994217;28;20030;-66
2022/03/24 02:56:44;;;;;;;15.95;11.40;;;5.60;99.90;;;;;;4999230;28;20026;-67
2022/03/24 02:59:12;;;;;;;14.95;10.52;;;5.50;99.90;;;;;;4997340;28;20391;-66
2022/03/24 03:01:42;;;;;;;12.45;9.55;;;5.50;99.90;;;;;;4997147;28;20041;-66
2022/03/24 03:04:14;;;;;;;9.57;8.18;;;5.40;99.90;;;;;;4996634;28;20108;-67
2022/03/24 03:06:39;;;;;;;8.55;7.75;;;5.10;99.90;;;;;;4992447;28;20388;-66
2022/03/24 03:09:06;;;;;;;8.80;7.80;;;4.90;99.90;;;;;;4997192;28;20081;-66
2022/03/24 03:11:32;;;;;;;9.30;7.65;;;4.80;99.90;;;;;;4996597;28;20034;-66
2022/03/24 03:14:00;;;;;;;9.82;8.00;;;4.80;99.90;;;;;;4996788;28;20030;-66
2022/03/24 03:16:26;;;;;;;11.60;8.40;;;4.60;99.90;;;;;;4996627;28;20113;-66
2022/03/24 03:18:53;;;;;;;10.13;7.93;;;4.30;99.90;;;;;;4993523;28;20105;-66
2022/03/24 03:21:20;;;;;;;8.77;7.88;;;4.20;99.90;;;;;;4993915;28;20168;-66
2022/03/24 03:23:46;;;;;;;10.05;8.52;;;4.30;99.90;;;;;;4998843;28;20064;-66
2022/03/24 03:26:12;;;;;;;10.13;8.80;;;4.10;99.90;;;;;;4996701;28;20023;-66
2022/03/24 03:28:39;;;;;;;9.95;8.60;;;4.00;99.90;;;;;;4995039;28;20023;-66
2022/03/24 03:31:05;;;;;;;9.95;8.55;;;4.00;99.90;;;;;;4996449;28;20029;-66
2022/03/24 03:33:35;;;;;;;10.27;8.88;;;4.10;99.90;;;;;;4991932;28;20019;-67
2022/03/24 03:36:03;;;;;;;11.45;8.95;;;4.00;99.90;;;;;;4996605;28;20053;-66
2022/03/24 03:38:30;;;;;;;9.85;8.90;;;4.10;99.90;;;;;;4995576;28;20243;-67
2022/03/24 03:40:56;;;;;;;10.45;8.77;;;4.00;99.90;;;;;;4996407;28;20125;-66
2022/03/24 03:43:23;;;;;;;10.07;8.10;;;3.80;99.90;;;;;;4996239;28;20042;-67
2022/03/24 03:45:49;;;;;;;8.90;8.10;;;3.80;99.90;;;;;;4993065;28;20113;-67
2022/03/24 03:48:15;;;;;;;9.65;8.68;;;3.70;99.90;;;;;;4992472;28;20191;-66
2022/03/24 03:50:43;;;;;;;9.98;8.90;;;3.60;99.90;;;;;;4998016;28;20385;-66
2022/03/24 03:53:10;;;;;;;9.15;8.20;;;3.60;99.90;;;;;;4996010;28;20432;-66
2022/03/24 03:55:37;;;;;;;10.18;9.10;;;3.50;99.90;;;;;;4996516;28;20432;-66
2022/03/24 03:58:07;;;;;;;9.98;8.90;;;3.40;99.90;;;;;;4994712;28;20114;-66
2022/03/24 04:03:18;;;;;;;9.90;8.90;;;3.50;99.90;;;;;;4992887;28;20032;-66
2022/03/24 04:05:43;;;;;;;9.82;8.82;;;3.30;99.90;;;;;;4998294;28;20101;-66
2022/03/24 04:08:13;;;;;;;9.65;8.65;;;3.30;99.90;;;;;;4994476;28;20514;-66
2022/03/24 04:10:40;;;;;;;9.60;8.60;;;3.30;99.90;;;;;;4995674;28;20149;-66
2022/03/24 04:13:06;;;;;;;11.40;8.55;;;3.50;99.90;;;;;;4996251;28;20532;-66
2022/03/24 04:15:33;;;;;;;9.02;7.55;;;3.70;99.90;;;;;;4991720;28;20030;-66
2022/03/24 04:17:59;;;;;;;9.25;7.70;;;3.90;99.90;;;;;;4997105;28;20080;-66
2022/03/24 04:20:26;;;;;;;9.25;8.00;;;3.90;99.90;;;;;;4994381;28;20040;-66
2022/03/24 04:22:52;;;;;;;9.15;7.57;;;4.20;99.90;;;;;;4995845;28;20026;-66
2022/03/24 04:25:20;;;;;;;8.15;7.43;;;4.20;99.90;;;;;;4994237;28;20523;-66
2022/03/24 04:27:46;;;;;;;8.90;8.00;;;4.30;99.90;;;;;;4993158;28;20030;-66
2022/03/24 04:30:12;;;;;;;9.45;7.72;;;4.30;99.90;;;;;;4993785;28;20049;-66
2022/03/24 04:32:45;;;;;;;10.07;8.20;;;4.40;99.90;;;;;;4996741;28;20105;-66
2022/03/24 04:35:12;;;;;;;10.07;8.45;;;4.10;99.90;;;;;;4995112;28;20114;-66
2022/03/24 04:37:38;;;;;;;11.93;8.50;;;3.90;99.90;;;;;;4994017;28;20026;-66
2022/03/24 04:40:05;;;;;;;9.80;7.65;;;3.70;99.90;;;;;;4995064;28;20038;-66
2022/03/24 04:42:32;;;;;;;9.23;8.23;;;4.00;99.90;;;;;;4990770;28;20047;-66
2022/03/24 04:44:58;;;;;;;9.65;8.20;;;4.20;99.90;;;;;;4997254;28;20034;-66
2022/03/24 04:47:24;;;;;;;10.02;7.78;;;4.30;99.90;;;;;;4993273;28;20092;-66
2022/03/24 04:49:50;;;;;;;11.70;10.35;;;4.40;99.90;;;;;;4994001;28;20506;-66
2022/03/24 04:52:16;;;;;;;17.90;15.55;;;4.60;99.90;;;;;;4995057;28;20176;-66
2022/03/24 04:54:42;;;;;;;22.65;16.95;;;4.70;99.90;;;;;;4992352;28;20029;-66
2022/03/24 04:57:08;;;;;;;14.90;13.07;;;4.70;99.90;;;;;;4994869;28;20479;-66
2022/03/24 04:59:34;;;;;;;15.68;9.80;;;4.40;99.90;;;;;;4996057;28;20026;-66
2022/03/24 05:02:00;;;;;;;10.98;9.20;;;4.20;99.90;;;;;;4994497;28;20038;-66
2022/03/24 05:04:26;;;;;;;12.52;9.40;;;4.10;99.90;;;;;;4993238;28;20056;-66
2022/03/24 05:06:51;;;;;;;11.35;10.15;;;4.00;99.90;;;;;;4993692;28;20037;-66
2022/03/24 05:09:17;;;;;;;12.55;9.77;;;4.10;99.90;;;;;;4992076;28;20515;-66
2022/03/24 05:11:44;;;;;;;12.23;9.88;;;4.10;99.90;;;;;;4997329;28;20033;-65
2022/03/24 05:14:10;;;;;;;10.57;9.02;;;4.00;99.90;;;;;;4994535;28;20030;-66
2022/03/24 05:16:36;;;;;;;13.30;10.52;;;3.90;99.90;;;;;;4992139;28;20030;-66
2022/03/24 05:19:03;;;;;;;11.75;10.55;;;4.00;99.90;;;;;;4994662;28;20036;-66
2022/03/24 05:21:31;;;;;;;11.43;9.48;;;4.10;99.90;;;;;;4975224;28;20492;-66
2022/03/24 05:23:57;;;;;;;11.93;10.60;;;4.20;99.90;;;;;;5003707;28;20026;-66
2022/03/24 05:26:24;;;;;;;12.40;9.55;;;4.10;99.90;;;;;;4995441;28;20041;-66
2022/03/24 05:28:50;;;;;;;12.40;10.07;;;4.30;99.90;;;;;;4994402;28;20033;-66
2022/03/24 05:31:17;;;;;;;11.77;9.07;;;4.20;99.90;;;;;;4994139;28;20568;-66
2022/03/24 05:33:43;;;;;;;10.13;8.20;;;4.30;99.90;;;;;;4991824;28;20022;-66
2022/03/24 05:36:09;;;;;;;9.93;7.82;;;4.30;99.90;;;;;;4994038;28;20487;-66
2022/03/24 05:38:36;;;;;;;8.93;7.85;;;4.30;99.90;;;;;;4995834;28;20492;-66
2022/03/24 05:41:02;;;;;;;8.93;8.00;;;4.30;99.90;;;;;;4994739;28;20118;-66
2022/03/24 05:43:29;;;;;;;10.85;8.38;;;4.40;99.90;;;;;;4993082;28;20177;-66
2022/03/24 05:45:55;;;;;;;10.05;8.30;;;4.20;99.90;;;;;;4991554;28;20030;-66
2022/03/24 05:48:20;;;;;;;10.93;8.30;;;4.10;99.90;;;;;;4991240;28;20047;-66
2022/03/24 05:50:46;;;;;;;9.90;8.15;;;4.30;99.90;;;;;;4996885;28;20404;-65
2022/03/24 05:53:12;;;;;;;11.10;8.00;;;4.30;99.90;;;;;;4994396;28;20030;-66
2022/03/24 05:55:40;;;;;;;10.90;8.20;;;4.40;99.90;;;;;;4991675;28;20519;-66
2022/03/24 05:58:06;;;;;;;10.18;7.85;;;4.40;99.90;;;;;;4994303;28;20036;-66
2022/03/24 06:00:34;;;;;;;9.90;8.63;;;4.40;99.90;;;;;;4993934;28;20487;-66
2022/03/24 06:03:01;;;;;;;9.35;8.07;;;4.30;99.90;;;;;;5000080;28;20034;-66
2022/03/24 06:05:27;;;;;;;11.77;8.13;;;4.30;99.90;;;;;;4998738;28;20540;-66
2022/03/24 06:07:55;;;;;;;11.93;8.23;;;4.50;99.90;;;;;;4998442;28;20034;-66
2022/03/24 06:10:20;;;;;;;11.35;8.30;;;4.50;99.90;;;;;;4997815;28;20514;-66
2022/03/24 06:12:47;;;;;;;10.23;8.00;;;4.50;99.90;;;;;;4995441;28;20057;-66
2022/03/24 06:15:13;;;;;;;11.55;7.82;;;4.50;99.90;;;;;;4996318;28;20038;-65
2022/03/24 06:17:39;;;;;;;11.77;8.38;;;4.60;99.90;;;;;;5000144;28;20029;-66
2022/03/24 06:20:09;;;;;;;11.20;7.93;;;4.60;99.90;;;;;;4997836;28;20561;-66
2022/03/24 06:22:50;;;;;;;10.38;7.68;;;4.80;99.90;;;;;;4996148;28;20495;-65
2022/03/24 06:25:16;;;;;;;9.20;8.07;;;5.10;99.90;;;;;;4996564;28;20034;-65
2022/03/24 06:27:42;;;;;;;10.02;7.93;;;5.40;99.90;;;;;;4994555;28;20109;-66
2022/03/24 06:30:09;;;;;;;9.60;8.00;;;5.70;99.90;;;;;;4996082;28;20121;-66
2022/03/24 06:32:35;;;;;;;9.95;8.05;;;6.10;99.90;;;;;;4998980;28;20090;-67
2022/03/24 06:35:03;;;;;;;8.82;7.32;;;7.20;99.90;;;;;;4996334;28;20045;-66
2022/03/24 06:37:29;;;;;;;8.55;7.72;;;8.00;99.90;;;;;;4997519;28;20031;-66
2022/03/24 06:39:56;;;;;;;9.60;7.47;;;8.10;99.90;;;;;;4996708;28;20120;-66
2022/03/24 06:42:23;;;;;;;9.70;7.40;;;8.40;99.90;;;;;;4993786;28;20050;-66
2022/03/24 06:44:49;;;;;;;9.40;7.25;;;9.00;99.90;;;;;;4998033;28;20399;-66
2022/03/24 06:47:15;;;;;;;11.15;7.38;;;8.80;99.90;;;;;;4997224;28;20026;-66
2022/03/24 06:49:41;;;;;;;10.68;7.78;;;10.00;99.90;;;;;;4997267;28;20117;-66
2022/03/24 06:52:07;;;;;;;9.80;6.90;;;10.40;98.20;;;;;;4997200;28;20530;-66
2022/03/24 06:54:33;;;;;;;11.98;7.43;;;10.90;96.90;;;;;;4992925;28;20451;-66
2022/03/24 06:56:59;;;;;;;9.85;7.15;;;11.10;96.80;;;;;;4998765;28;20025;-66
2022/03/24 06:59:24;;;;;;;7.82;6.95;;;11.40;96.00;;;;;;4997328;28;20499;-66
2022/03/24 07:01:50;;;;;;;10.07;7.68;;;11.90;94.60;;;;;;4995533;28;20103;-66
2022/03/24 07:04:16;;;;;;;7.93;6.93;;;12.40;93.90;;;;;;4996905;28;20041;-66
2022/03/24 07:06:42;;;;;;;8.45;7.38;;;12.20;93.90;;;;;;4993998;28;20113;-66
2022/03/24 07:09:08;;;;;;;8.23;6.97;;;13.10;93.40;;;;;;4996512;28;20026;-66
2022/03/24 07:11:34;;;;;;;7.95;6.80;;;13.40;92.40;;;;;;4998086;28;20022;-66
2022/03/24 07:13:59;;;;;;;9.60;7.20;;;14.10;91.70;;;;;;4995280;28;20109;-66
2022/03/24 07:16:25;;;;;;;9.52;6.97;;;13.70;92.10;;;;;;4996262;28;20041;-66
2022/03/24 07:18:51;;;;;;;9.75;7.13;;;14.00;91.30;;;;;;4995047;28;20447;-66
2022/03/24 07:21:17;;;;;;;8.13;6.38;;;14.80;88.80;;;;;;4994858;28;20030;-67
2022/03/24 07:23:43;;;;;;;10.20;7.22;;;14.20;89.50;;;;;;4995411;28;20081;-67
2022/03/24 07:26:09;;;;;;;8.98;7.10;;;14.10;89.80;;;;;;4994844;28;20080;-66
2022/03/24 07:28:36;;;;;;;11.35;6.68;;;14.90;87.80;;;;;;4996103;28;20035;-67
2022/03/24 07:31:13;;;;;;;8.65;6.60;;;15.00;88.30;;;;;;4996443;28;20499;-66
2022/03/24 07:33:38;;;;;;;8.10;7.00;;;15.30;87.70;;;;;;4979254;28;20026;-66
2022/03/24 07:36:06;;;;;;;12.43;7.57;;;15.80;87.10;;;;;;4996640;28;20049;-66
2022/03/24 07:38:33;;;;;;;9.93;7.10;;;14.60;88.90;;;;;;4995662;28;20031;-67
2022/03/24 07:40:58;;;;;;;7.65;6.45;;;14.40;86.70;;;;;;4994263;28;20407;-65
2022/03/24 07:43:24;;;;;;;9.25;6.82;;;15.40;87.90;;;;;;4993222;28;20058;-64
2022/03/24 07:45:51;;;;;;;8.95;6.72;;;14.80;88.00;;;;;;4991134;28;20034;-65
2022/03/24 07:48:18;;;;;;;9.15;6.68;;;15.60;85.30;;;;;;4992776;28;20026;-65
2022/03/24 07:50:48;;;;;;;7.68;6.88;;;15.10;87.50;;;;;;4995032;28;20038;-65
2022/03/24 07:53:14;;;;;;;10.30;6.32;;;15.90;86.70;;;;;;4993380;28;20445;-66
2022/03/24 07:55:49;;;;;;;8.40;7.00;;;16.90;83.70;;;;;;4995717;28;20030;-64
2022/03/24 07:58:17;;;;;;;8.40;6.30;;;16.80;83.80;;;;;;4995769;28;20094;-65
2022/03/24 08:00:43;;;;;;;9.52;6.57;;;17.50;83.40;;;;;;4991756;28;20077;-65
2022/03/24 08:03:11;;;;;;;9.95;6.35;;;16.70;85.70;;;;;;4995375;28;20122;-65
2022/03/24 08:05:37;;;;;;;8.38;6.22;;;18.00;83.30;;;;;;4997031;28;20026;-65
2022/03/24 08:08:07;;;;;;;10.35;6.43;;;18.40;81.90;;;;;;4995716;28;20595;-63
2022/03/24 08:10:33;;;;;;;9.27;5.95;;;18.30;80.80;;;;;;4995374;28;20042;-64
2022/03/24 08:12:59;;;;;;;7.53;6.38;;;20.00;78.70;;;;;;4995069;28;20030;-64
2022/03/24 08:15:24;;;;;;;8.50;6.22;;;18.50;80.10;;;;;;4992159;28;20398;-62
2022/03/24 08:17:50;;;;;;;6.93;5.88;;;19.00;79.70;;;;;;4997637;28;20566;-63
2022/03/24 08:20:16;;;;;;;7.63;5.78;;;19.10;78.70;;;;;;4993817;28;20023;-64
2022/03/24 08:22:41;;;;;;;9.88;5.72;;;19.70;77.40;;;;;;4994115;28;20061;-63
2022/03/24 08:25:08;;;;;;;8.07;5.90;;;21.00;77.30;;;;;;4992253;28;20022;-63
2022/03/24 08:27:35;;;;;;;8.13;5.80;;;19.50;78.00;;;;;;4991002;28;20038;-63
2022/03/24 08:30:02;;;;;;;11.07;5.88;;;18.50;81.90;;;;;;4994049;28;20038;-64
2022/03/24 08:32:28;;;;;;;8.93;6.10;;;19.70;79.20;;;;;;4996055;28;20052;-64
2022/03/24 08:34:54;;;;;;;7.78;5.75;;;19.00;79.20;;;;;;4995969;28;20352;-64
2022/03/24 08:37:19;;;;;;;9.57;5.85;;;21.50;76.40;;;;;;4995486;28;20026;-64
2022/03/24 08:39:45;;;;;;;6.70;6.00;;;22.50;73.70;;;;;;4991295;28;20418;-64
2022/03/24 08:42:11;;;;;;;8.05;6.10;;;21.70;74.70;;;;;;4993397;28;20042;-64
2022/03/24 08:44:36;;;;;;;7.15;5.75;;;20.50;77.20;;;;;;4996561;28;20034;-67
2022/03/24 08:47:02;;;;;;;7.43;6.18;;;22.50;74.50;;;;;;4994815;28;20089;-71
2022/03/24 08:49:28;;;;;;;7.82;5.85;;;21.90;77.80;;;;;;4994551;28;20522;-75
2022/03/24 08:51:54;;;;;;;7.15;5.80;;;20.80;80.50;;;;;;4993963;28;20455;-74
2022/03/24 08:54:19;;;;;;;8.00;6.15;;;22.10;81.30;;;;;;4992075;28;20105;-76
2022/03/24 08:56:45;;;;;;;8.90;5.90;;;21.60;77.80;;;;;;4996980;28;20121;-75
2022/03/24 08:59:11;;;;;;;10.60;6.55;;;20.90;81.40;;;;;;4991995;28;20038;-75
2022/03/24 09:01:38;;;;;;;7.32;6.03;;;22.30;78.50;;;;;;4994739;28;20379;-75
2022/03/24 09:04:04;;;;;;;7.80;5.80;;;22.70;77.30;;;;;;4994746;28;20064;-74
2022/03/24 09:06:30;;;;;;;8.95;5.80;;;21.40;77.40;;;;;;4991055;28;20054;-76
2022/03/24 09:08:55;;;;;;;8.77;5.60;;;20.10;81.20;;;;;;4996387;28;20030;-76
2022/03/24 09:11:21;;;;;;;9.52;5.90;;;19.20;79.70;;;;;;4993182;28;20022;-74
2022/03/24 09:13:47;;;;;;;7.50;5.63;;;20.90;78.50;;;;;;4994645;28;20030;-76
2022/03/24 09:16:13;;;;;;;10.77;6.20;;;21.70;77.50;;;;;;4993505;28;20026;-75
2022/03/24 09:18:39;;;;;;;7.40;5.97;;;20.90;79.20;;;;;;4988708;28;20436;-74
2022/03/24 09:21:05;;;;;;;7.88;5.75;;;22.00;78.20;;;;;;4995238;28;20048;-74
2022/03/24 09:23:31;;;;;;;8.57;5.45;;;23.10;76.00;;;;;;4995127;28;20492;-75
2022/03/24 09:25:57;;;;;;;7.82;5.45;;;20.90;76.60;;;;;;4994373;28;20026;-75
2022/03/24 09:28:24;;;;;;;9.48;5.80;;;22.10;76.70;;;;;;4994481;28;20037;-73
2022/03/24 09:30:50;;;;;;;10.27;5.88;;;22.80;77.00;;;;;;4991571;28;20042;-75
2022/03/24 09:33:17;;;;;;;9.27;6.15;;;21.60;77.40;;;;;;4992308;28;20096;-73
2022/03/24 09:35:43;;;;;;;8.20;5.88;;;21.30;78.80;;;;;;5000403;28;20045;-73
2022/03/24 09:38:09;;;;;;;7.78;5.60;;;22.60;76.70;;;;;;4996958;28;20030;-73
2022/03/24 09:40:35;;;;;;;7.57;5.40;;;23.30;77.20;;;;;;4998724;28;20042;-73
2022/03/24 09:43:02;;;;;;;7.60;5.18;;;22.80;77.50;;;;;;4997610;28;20046;-73
2022/03/24 09:45:28;;;;;;;7.88;5.82;;;20.30;79.20;;;;;;4994675;28;20043;-73
2022/03/24 09:47:54;;;;;;;8.30;5.60;;;20.50;78.50;;;;;;5000388;28;20109;-72
2022/03/24 09:50:22;;;;;;;8.05;5.63;;;21.90;78.40;;;;;;4996539;28;20470;-73
2022/03/24 09:52:49;;;;;;;7.78;6.20;;;22.30;76.50;;;;;;4998277;28;20049;-73
2022/03/24 09:55:16;;;;;;;7.85;5.30;;;22.50;77.60;;;;;;4998433;28;20042;-72
2022/03/24 09:57:43;;;;;;;8.80;5.30;;;22.90;78.90;;;;;;4993995;28;20077;-73
2022/03/24 10:00:10;;;;;;;9.13;5.93;;;23.80;76.20;;;;;;4997670;28;20557;-73
2022/03/24 10:02:36;;;;;;;7.97;5.63;;;23.30;75.90;;;;;;4999694;28;20034;-72
2022/03/24 10:05:03;;;;;;;9.00;5.50;;;24.10;76.50;;;;;;4997656;28;20113;-72
2022/03/24 10:07:34;;;;;;;9.45;5.45;;;23.20;75.90;;;;;;4997958;28;20054;-72
2022/03/24 10:10:01;;;;;;;12.43;5.60;;;21.80;78.00;;;;;;4997722;28;20176;-72
2022/03/24 10:12:38;;;;;;;9.90;5.50;;;21.70;77.00;;;;;;4992540;28;20491;-72
2022/03/24 10:15:07;;;;;;;7.93;5.60;;;19.40;82.40;;;;;;5007704;28;20042;-72
2022/03/24 10:17:35;;;;;;;7.63;5.65;;;19.90;82.20;;;;;;4997832;28;20022;-72
2022/03/24 10:20:05;;;;;;;7.10;5.72;;;20.00;81.50;;;;;;4997112;28;20054;-71
2022/03/24 10:22:32;;;;;;;6.68;5.07;;;20.70;80.30;;;;;;4997565;28;20030;-68
2022/03/24 10:24:59;;;;;;;7.18;5.35;;;21.70;79.10;;;;;;4997103;28;20399;-71
2022/03/24 10:27:27;;;;;;;6.20;5.10;;;21.00;81.50;;;;;;4992609;28;20039;-71
2022/03/24 10:29:58;;;;;;;8.25;5.88;;;20.50;80.60;;;;;;4998979;28;20125;-71
2022/03/24 10:32:33;;;;;;;6.85;5.38;;;21.70;80.10;;;;;;4996873;28;20026;-71
2022/03/24 10:35:13;;;;;;;6.90;5.30;;;21.30;77.20;;;;;;4996804;28;20101;-67
2022/03/24 10:37:51;;;;;;;7.22;5.43;;;21.30;78.80;;;;;;4995890;28;20526;-67
2022/03/24 10:40:18;;;;;;;8.52;5.60;;;21.80;78.90;;;;;;4997487;28;20412;-66
2022/03/24 10:42:44;;;;;;;7.22;5.47;;;21.80;78.00;;;;;;4994562;28;20069;-66
2022/03/24 10:45:18;;;;;;;7.75;5.40;;;20.50;82.10;;;;;;4996255;28;20058;-66
2022/03/24 10:47:51;;;;;;;7.32;5.40;;;20.30;80.00;;;;;;4997648;28;20458;-66
2022/03/24 10:50:39;;;;;;;6.15;5.30;;;21.30;79.60;;;;;;4994847;28;20049;-66
2022/03/24 10:53:16;;;;;;;6.00;5.40;;;19.10;82.50;;;;;;4996974;28;20034;-65
2022/03/24 10:55:50;;;;;;;7.03;5.32;;;21.10;81.60;;;;;;4995538;28;20124;-67
2022/03/24 10:58:18;;;;;;;;;;;21.30;81.00;;;;;;4996115;28;20041;-65
2022/03/24 11:00:47;;;;;;;6.53;5.10;;;21.40;80.00;;;;;;4994349;28;19916;-66
2022/03/24 11:03:16;;;;;;;6.70;5.05;;;21.10;78.50;;;;;;4995061;28;20492;-64
2022/03/24 11:05:42;;;;;;;7.75;5.00;;;21.20;78.70;;;;;;4996313;28;20041;-66
2022/03/24 11:08:08;;;;;;;6.22;4.65;;;21.20;78.40;;;;;;4994263;28;20394;-66
2022/03/24 11:10:45;;;;;;;7.70;4.60;;;19.50;78.70;;;;;;4993655;28;20049;-65
2022/03/24 11:13:13;;;;;;;5.88;4.45;;;18.70;80.10;;;;;;4991229;28;20462;-66
2022/03/24 11:15:40;;;;;;;9.27;6.60;;;19.00;80.50;;;;;;4992563;28;20030;-66
2022/03/24 11:18:07;;;;;;;7.38;5.72;;;19.40;81.20;;;;;;4993498;28;20019;-66
2022/03/24 11:20:38;;;;;;;7.70;5.97;;;19.70;80.60;;;;;;4992839;28;20484;-64
2022/03/24 11:23:35;;;;;;;9.23;5.93;;;20.30;81.70;;;;;;4996691;28;20030;-69
2022/03/24 11:26:02;;;;;;;9.30;6.43;;;19.70;80.50;;;;;;4995947;28;20034;-68
2022/03/24 11:28:28;;;;;;;9.52;6.90;;;20.40;82.00;;;;;;4995674;28;20022;-68
2022/03/24 11:30:54;;;;;;;10.65;6.60;;;21.00;80.20;;;;;;4994812;28;20037;-68
2022/03/24 11:33:21;;;;;;;7.50;5.40;;;21.20;80.60;;;;;;4993051;28;20127;-68
2022/03/24 11:35:49;;;;;;;6.82;5.15;;;21.10;77.70;;;;;;4996847;28;20069;-69
2022/03/24 11:38:15;;;;;;;10.70;5.75;;;21.30;77.70;;;;;;4996609;28;20509;-68
2022/03/24 11:40:41;;;;;;;8.52;5.85;;;21.30;79.60;;;;;;4996228;28;20121;-68
2022/03/24 11:43:10;;;;;;;7.22;5.50;;;21.60;79.60;;;;;;4995882;28;20218;-69
2022/03/24 11:46:02;;;;;;;8.27;5.88;;;21.20;80.70;;;;;;4990968;28;22530;-69
2022/03/24 11:48:36;;;;;;;5.55;4.95;;;21.20;82.00;;;;;;4978567;28;20495;-67
2022/03/24 11:51:20;;;;;;;7.68;5.03;;;20.30;82.40;;;;;;5005545;28;20057;-66
2022/03/24 11:54:02;;;;;;;;;;;21.00;81.00;;;;;;4998581;28;20030;-65
2022/03/24 11:56:28;;;;;;;7.75;4.50;;;20.90;78.80;;;;;;4995408;28;19910;-66
2022/03/24 11:58:54;;;;;;;7.22;5.10;;;20.80;79.60;;;;;;4995360;28;20426;-68
2022/03/24 12:01:19;;;;;;;9.70;6.13;;;19.90;81.20;;;;;;4995549;28;20044;-68
2022/03/24 12:03:48;;;;;;;6.72;5.35;;;20.10;80.60;;;;;;4993111;28;20082;-67
2022/03/24 12:06:18;;;;;;;7.85;5.28;;;20.10;81.40;;;;;;4994264;28;20483;-66
2022/03/24 12:08:52;;;;;;;7.78;5.63;;;20.40;80.90;;;;;;4995973;28;20053;-66
2022/03/24 12:11:32;;;;;;;10.05;5.53;;;20.60;79.70;;;;;;4995547;28;20042;-66
2022/03/24 12:14:03;;;;;;;7.97;5.32;;;20.50;82.40;;;;;;4994397;28;20053;-66
2022/03/24 12:16:29;;;;;;;6.30;5.07;;;20.60;81.30;;;;;;4995537;28;20014;-67
2022/03/24 12:18:56;;;;;;;11.02;5.75;;;20.30;80.90;;;;;;4994753;28;20033;-68
2022/03/24 12:21:27;;;;;;;8.50;5.20;;;20.60;81.20;;;;;;4992406;28;20042;-68
2022/03/24 12:24:02;;;;;;;15.32;5.60;;;20.30;80.30;;;;;;4997761;28;20399;-68
2022/03/24 12:26:29;;;;;;;7.20;4.78;;;20.40;81.20;;;;;;4996388;28;20037;-68
2022/03/24 12:29:13;;;;;;;14.77;5.65;;;20.40;81.20;;;;;;4995539;28;20108;-67
2022/03/24 12:31:57;;;;;;;7.25;4.80;;;20.20;82.20;;;;;;4995162;28;20035;-68
2022/03/24 12:34:29;;;;;;;6.93;5.35;;;19.60;84.70;;;;;;4993872;28;20034;-68
2022/03/24 12:36:55;;;;;;;10.88;5.50;;;19.70;81.90;;;;;;4994591;28;20021;-67
2022/03/24 12:39:37;;;;;;;8.02;5.40;;;19.00;84.40;;;;;;4992016;28;20402;-67
2022/03/24 12:42:04;;;;;;;8.55;5.53;;;19.00;83.50;;;;;;5004916;28;20054;-67
2022/03/24 12:44:49;;;;;;;6.85;5.10;;;19.50;84.70;;;;;;4994059;28;20458;-67
2022/03/24 12:47:50;;;;;;;8.52;4.95;;;20.10;83.70;;;;;;4995120;28;20165;-67
2022/03/24 12:50:15;;;;;;;9.25;5.72;;;19.90;83.10;;;;;;4995329;28;20078;-67
2022/03/24 12:52:56;;;;;;;7.88;5.60;;;19.70;81.60;;;;;;4993654;28;20065;-67
2022/03/24 12:55:37;;;;;;;8.32;5.60;;;18.80;85.20;;;;;;4995143;28;20729;-67
2022/03/24 12:58:12;;;;;;;6.55;5.50;;;18.80;83.10;;;;;;4994673;28;20045;-67